sensor_id;sensor_type;location;lat;lon;timestamp;pressure;altitude;pressure_sealevel;temperature;humidity
62055;BME280;48653;51.742;-1.256;2023-08-06T00:01:48;100721.51;;;12.05;58.52
62055;BME280;48653;51.742;-1.256;2023-08-06T00:04:13;100720.31;;;12.32;58.64
62055;BME280;48653;51.742;-1.256;2023-08-06T00:06:38;100726.10;;;12.37;59.38
62055;BME280;48653;51.742;-1.256;2023-08-06T00:09:04;100724.54;;;12.15;58.34
62055;BME280;48653;51.742;-1.256;2023-08-06T00:11:29;100726.31;;;12.46;58.43
62055;BME280;48653;51.742;-1.256;2023-08-06T00:13:54;100724.38;;;12.47;58.08
62055;BME280;48653;51.742;-1.256;2023-08-06T00:16:19;100727.48;;;11.54;59.43
62055;BME280;48653;51.742;-1.256;2023-08-06T00:18:44;100726.46;;;12.12;58.16
62055;BME280;48653;51.742;-1.256;2023-08-06T00:21:09;100729.91;;;11.86;60.13
62055;BME280;48653;51.742;-1.256;2023-08-06T00:23:34;100732.99;;;12.42;58.36
62055;BME280;48653;51.742;-1.256;2023-08-06T00:26:00;100738.95;;;11.77;58.79
62055;BME280;48653;51.742;-1.256;2023-08-06T00:28:25;100740.36;;;12.15;59.20
62055;BME280;48653;51.742;-1.256;2023-08-06T00:30:53;100741.11;;;12.00;58.74
62055;BME280;48653;51.742;-1.256;2023-08-06T00:33:15;100743.77;;;12.02;59.09
62055;BME280;48653;51.742;-1.256;2023-08-06T00:35:40;100750.21;;;12.00;58.97
62055;BME280;48653;51.742;-1.256;2023-08-06T00:38:06;100750.09;;;12.62;58.11
62055;BME280;48653;51.742;-1.256;2023-08-06T00:40:31;100751.68;;;12.20;59.26
62055;BME280;48653;51.742;-1.256;2023-08-06T00:42:56;100752.17;;;12.30;58.92
62055;BME280;48653;51.742;-1.256;2023-08-06T00:45:21;100756.00;;;11.72;60.16
62055;BME280;48653;51.742;-1.256;2023-08-06T00:47:46;100755.42;;;12.07;59.53
62055;BME280;48653;51.742;-1.256;2023-08-06T00:50:11;100762.04;;;12.27;58.84
62055;BME280;48653;51.742;-1.256;2023-08-06T00:52:37;100764.15;;;12.01;58.99
62055;BME280;48653;51.742;-1.256;2023-08-06T00:55:02;100767.10;;;12.04;58.05
62055;BME280;48653;51.742;-1.256;2023-08-06T00:57:27;100769.27;;;13.12;55.86
62055;BME280;48653;51.742;-1.256;2023-08-06T00:59:52;100776.25;;;12.29;57.22
62055;BME280;48653;51.742;-1.256;2023-08-06T01:02:17;100779.72;;;12.35;57.36
62055;BME280;48653;51.742;-1.256;2023-08-06T01:04:42;100778.23;;;12.46;56.77
62055;BME280;48653;51.742;-1.256;2023-08-06T01:07:15;100778.58;;;12.39;56.80
62055;BME280;48653;51.742;-1.256;2023-08-06T01:09:38;100782.98;;;12.60;56.43
62055;BME280;48653;51.742;-1.256;2023-08-06T01:12:06;100783.50;;;12.99;55.53
62055;BME280;48653;51.742;-1.256;2023-08-06T01:14:28;100786.42;;;12.73;55.71
62055;BME280;48653;51.742;-1.256;2023-08-06T01:16:48;100791.13;;;12.28;56.65
62055;BME280;48653;51.742;-1.256;2023-08-06T01:19:16;100784.22;;;12.77;55.47
62055;BME280;48653;51.742;-1.256;2023-08-06T01:21:37;100787.96;;;13.44;54.49
62055;BME280;48653;51.742;-1.256;2023-08-06T01:24:03;100789.17;;;13.12;54.67
62055;BME280;48653;51.742;-1.256;2023-08-06T01:26:33;100791.52;;;13.02;54.61
62055;BME280;48653;51.742;-1.256;2023-08-06T01:28:58;100794.28;;;12.89;54.70
62055;BME280;48653;51.742;-1.256;2023-08-06T01:31:22;100795.36;;;12.74;55.03
62055;BME280;48653;51.742;-1.256;2023-08-06T01:33:45;100799.15;;;12.75;55.54
62055;BME280;48653;51.742;-1.256;2023-08-06T01:36:09;100797.98;;;12.60;55.55
62055;BME280;48653;51.742;-1.256;2023-08-06T01:38:35;100805.23;;;12.58;55.24
62055;BME280;48653;51.742;-1.256;2023-08-06T01:41:00;100802.62;;;11.66;56.63
62055;BME280;48653;51.742;-1.256;2023-08-06T01:43:25;100805.37;;;11.70;56.55
62055;BME280;48653;51.742;-1.256;2023-08-06T01:45:50;100813.78;;;12.46;55.76
62055;BME280;48653;51.742;-1.256;2023-08-06T01:48:15;100817.32;;;11.42;57.57
62055;BME280;48653;51.742;-1.256;2023-08-06T01:50:40;100817.28;;;12.09;56.01
62055;BME280;48653;51.742;-1.256;2023-08-06T01:53:05;100819.62;;;12.60;54.81
62055;BME280;48653;51.742;-1.256;2023-08-06T01:55:30;100819.21;;;12.25;55.55
62055;BME280;48653;51.742;-1.256;2023-08-06T01:57:55;100823.12;;;11.48;57.17
62055;BME280;48653;51.742;-1.256;2023-08-06T02:02:46;100828.39;;;11.63;57.05
62055;BME280;48653;51.742;-1.256;2023-08-06T02:05:12;100831.70;;;11.74;56.59
62055;BME280;48653;51.742;-1.256;2023-08-06T02:07:36;100831.15;;;12.28;55.08
62055;BME280;48653;51.742;-1.256;2023-08-06T02:10:02;100833.31;;;12.56;54.31
62055;BME280;48653;51.742;-1.256;2023-08-06T02:12:27;100834.08;;;12.50;53.91
62055;BME280;48653;51.742;-1.256;2023-08-06T02:14:52;100836.95;;;11.83;55.62
62055;BME280;48653;51.742;-1.256;2023-08-06T02:17:18;100842.72;;;11.54;56.20
62055;BME280;48653;51.742;-1.256;2023-08-06T02:19:42;100841.20;;;11.88;55.63
62055;BME280;48653;51.742;-1.256;2023-08-06T02:22:07;100844.50;;;12.31;54.63
62055;BME280;48653;51.742;-1.256;2023-08-06T02:24:32;100845.60;;;12.42;54.08
62055;BME280;48653;51.742;-1.256;2023-08-06T02:26:57;100847.91;;;12.06;54.76
62055;BME280;48653;51.742;-1.256;2023-08-06T02:29:22;100842.54;;;11.71;55.27
62055;BME280;48653;51.742;-1.256;2023-08-06T02:31:47;100843.44;;;11.77;55.27
62055;BME280;48653;51.742;-1.256;2023-08-06T02:34:12;100843.47;;;12.31;54.12
62055;BME280;48653;51.742;-1.256;2023-08-06T02:36:38;100844.69;;;12.22;53.91
62055;BME280;48653;51.742;-1.256;2023-08-06T02:39:03;100844.00;;;12.08;54.42
62055;BME280;48653;51.742;-1.256;2023-08-06T02:41:28;100840.01;;;11.95;54.54
62055;BME280;48653;51.742;-1.256;2023-08-06T02:43:53;100839.60;;;11.67;54.65
62055;BME280;48653;51.742;-1.256;2023-08-06T02:46:18;100846.06;;;11.40;55.59
62055;BME280;48653;51.742;-1.256;2023-08-06T02:48:43;100848.66;;;11.48;56.50
62055;BME280;48653;51.742;-1.256;2023-08-06T02:51:10;100851.22;;;11.99;55.08
62055;BME280;48653;51.742;-1.256;2023-08-06T02:53:34;100856.44;;;11.18;57.09
62055;BME280;48653;51.742;-1.256;2023-08-06T02:55:59;100853.02;;;11.69;55.87
62055;BME280;48653;51.742;-1.256;2023-08-06T02:58:24;100854.05;;;11.49;56.58
62055;BME280;48653;51.742;-1.256;2023-08-06T03:01:00;100854.93;;;11.85;55.77
62055;BME280;48653;51.742;-1.256;2023-08-06T03:03:15;100849.51;;;11.99;54.92
62055;BME280;48653;51.742;-1.256;2023-08-06T03:05:40;100854.62;;;11.30;57.26
62055;BME280;48653;51.742;-1.256;2023-08-06T03:08:05;100850.23;;;11.92;55.56
62055;BME280;48653;51.742;-1.256;2023-08-06T03:10:30;100850.32;;;11.58;55.95
62055;BME280;48653;51.742;-1.256;2023-08-06T03:12:55;100851.60;;;11.02;57.00
62055;BME280;48653;51.742;-1.256;2023-08-06T03:15:20;100851.58;;;11.40;56.23
62055;BME280;48653;51.742;-1.256;2023-08-06T03:17:45;100850.22;;;11.81;54.72
62055;BME280;48653;51.742;-1.256;2023-08-06T03:20:11;100853.36;;;11.67;55.09
62055;BME280;48653;51.742;-1.256;2023-08-06T03:22:36;100855.04;;;11.80;54.73
62055;BME280;48653;51.742;-1.256;2023-08-06T03:25:01;100856.50;;;11.60;54.94
62055;BME280;48653;51.742;-1.256;2023-08-06T03:27:26;100858.70;;;11.29;55.71
62055;BME280;48653;51.742;-1.256;2023-08-06T03:29:51;100857.84;;;11.03;56.52
62055;BME280;48653;51.742;-1.256;2023-08-06T03:32:16;100856.90;;;10.63;56.26
62055;BME280;48653;51.742;-1.256;2023-08-06T03:34:42;100853.39;;;11.64;55.42
62055;BME280;48653;51.742;-1.256;2023-08-06T03:37:07;100854.50;;;11.09;56.99
62055;BME280;48653;51.742;-1.256;2023-08-06T03:39:32;100855.85;;;11.29;55.97
62055;BME280;48653;51.742;-1.256;2023-08-06T03:41:57;100857.92;;;11.39;55.80
62055;BME280;48653;51.742;-1.256;2023-08-06T03:44:22;100860.00;;;11.65;55.23
62055;BME280;48653;51.742;-1.256;2023-08-06T03:46:47;100866.80;;;11.55;55.12
62055;BME280;48653;51.742;-1.256;2023-08-06T03:49:12;100866.24;;;11.44;55.19
62055;BME280;48653;51.742;-1.256;2023-08-06T03:51:38;100863.41;;;11.38;55.80
62055;BME280;48653;51.742;-1.256;2023-08-06T03:54:03;100864.91;;;11.48;55.27
62055;BME280;48653;51.742;-1.256;2023-08-06T03:56:29;100867.12;;;11.41;55.81
62055;BME280;48653;51.742;-1.256;2023-08-06T03:58:53;100866.77;;;11.15;55.28
62055;BME280;48653;51.742;-1.256;2023-08-06T04:01:18;100865.54;;;12.16;53.97
62055;BME280;48653;51.742;-1.256;2023-08-06T04:03:44;100865.70;;;11.55;54.69
62055;BME280;48653;51.742;-1.256;2023-08-06T04:06:09;100865.77;;;11.90;54.12
62055;BME280;48653;51.742;-1.256;2023-08-06T04:08:34;100865.54;;;12.22;53.55
62055;BME280;48653;51.742;-1.256;2023-08-06T04:10:59;100866.80;;;11.92;53.12
62055;BME280;48653;51.742;-1.256;2023-08-06T04:13:25;100873.28;;;11.45;54.70
62055;BME280;48653;51.742;-1.256;2023-08-06T04:15:51;100877.85;;;11.79;53.93
62055;BME280;48653;51.742;-1.256;2023-08-06T04:18:17;100879.08;;;11.50;53.54
62055;BME280;48653;51.742;-1.256;2023-08-06T04:20:44;100877.82;;;12.10;53.19
62055;BME280;48653;51.742;-1.256;2023-08-06T04:23:06;100885.89;;;12.12;53.60
62055;BME280;48653;51.742;-1.256;2023-08-06T04:25:31;100886.13;;;12.09;53.93
62055;BME280;48653;51.742;-1.256;2023-08-06T04:27:56;100882.38;;;12.12;54.48
62055;BME280;48653;51.742;-1.256;2023-08-06T04:30:21;100879.70;;;11.69;54.69
62055;BME280;48653;51.742;-1.256;2023-08-06T04:32:46;100885.38;;;11.89;54.39
62055;BME280;48653;51.742;-1.256;2023-08-06T04:35:12;100881.43;;;12.14;54.37
62055;BME280;48653;51.742;-1.256;2023-08-06T04:37:37;100885.27;;;12.22;53.32
62055;BME280;48653;51.742;-1.256;2023-08-06T04:40:03;100885.21;;;12.16;53.85
62055;BME280;48653;51.742;-1.256;2023-08-06T04:42:28;100891.68;;;12.04;54.42
62055;BME280;48653;51.742;-1.256;2023-08-06T04:44:53;100893.40;;;12.16;54.27
62055;BME280;48653;51.742;-1.256;2023-08-06T04:47:18;100893.58;;;12.47;53.77
62055;BME280;48653;51.742;-1.256;2023-08-06T04:49:44;100897.30;;;11.92;54.95
62055;BME280;48653;51.742;-1.256;2023-08-06T04:52:09;100895.15;;;13.25;53.95
62055;BME280;48653;51.742;-1.256;2023-08-06T04:54:34;100902.84;;;12.51;54.88
62055;BME280;48653;51.742;-1.256;2023-08-06T04:56:59;100898.95;;;12.30;54.66
62055;BME280;48653;51.742;-1.256;2023-08-06T04:59:24;100901.73;;;12.62;54.65
62055;BME280;48653;51.742;-1.256;2023-08-06T05:01:49;100901.09;;;12.70;53.94
62055;BME280;48653;51.742;-1.256;2023-08-06T05:04:14;100902.68;;;12.36;54.48
62055;BME280;48653;51.742;-1.256;2023-08-06T05:06:40;100907.32;;;12.35;54.34
62055;BME280;48653;51.742;-1.256;2023-08-06T05:09:05;100913.06;;;12.27;54.80
62055;BME280;48653;51.742;-1.256;2023-08-06T05:11:31;100916.08;;;12.55;54.38
62055;BME280;48653;51.742;-1.256;2023-08-06T05:13:56;100917.78;;;12.36;54.37
62055;BME280;48653;51.742;-1.256;2023-08-06T05:16:21;100919.84;;;12.62;54.46
62055;BME280;48653;51.742;-1.256;2023-08-06T05:18:46;100927.68;;;12.43;54.42
62055;BME280;48653;51.742;-1.256;2023-08-06T05:21:12;100927.25;;;12.78;54.28
62055;BME280;48653;51.742;-1.256;2023-08-06T05:23:37;100929.54;;;12.66;54.25
62055;BME280;48653;51.742;-1.256;2023-08-06T05:26:02;100927.44;;;12.81;53.87
62055;BME280;48653;51.742;-1.256;2023-08-06T05:28:27;100934.48;;;12.13;55.15
62055;BME280;48653;51.742;-1.256;2023-08-06T05:30:52;100933.91;;;12.75;54.12
62055;BME280;48653;51.742;-1.256;2023-08-06T05:33:17;100934.03;;;12.72;53.82
62055;BME280;48653;51.742;-1.256;2023-08-06T05:35:44;100939.94;;;12.28;55.14
62055;BME280;48653;51.742;-1.256;2023-08-06T05:38:07;100940.17;;;13.00;53.98
62055;BME280;48653;51.742;-1.256;2023-08-06T05:40:33;100938.96;;;12.71;54.44
62055;BME280;48653;51.742;-1.256;2023-08-06T05:42:57;100940.17;;;12.99;54.16
62055;BME280;48653;51.742;-1.256;2023-08-06T05:45:22;100942.77;;;13.12;54.04
62055;BME280;48653;51.742;-1.256;2023-08-06T05:47:48;100942.00;;;12.81;54.54
62055;BME280;48653;51.742;-1.256;2023-08-06T05:50:13;100942.85;;;12.84;54.40
62055;BME280;48653;51.742;-1.256;2023-08-06T05:52:38;100943.48;;;13.11;53.95
62055;BME280;48653;51.742;-1.256;2023-08-06T05:55:03;100942.62;;;12.48;54.93
62055;BME280;48653;51.742;-1.256;2023-08-06T05:57:28;100946.95;;;12.79;54.59
62055;BME280;48653;51.742;-1.256;2023-08-06T05:59:53;100950.76;;;12.53;55.40
62055;BME280;48653;51.742;-1.256;2023-08-06T06:02:18;100951.46;;;12.73;55.04
62055;BME280;48653;51.742;-1.256;2023-08-06T06:04:43;100952.26;;;12.91;54.85
62055;BME280;48653;51.742;-1.256;2023-08-06T06:07:08;100951.44;;;12.73;55.39
62055;BME280;48653;51.742;-1.256;2023-08-06T06:09:34;100951.90;;;12.75;54.70
62055;BME280;48653;51.742;-1.256;2023-08-06T06:11:58;100955.61;;;12.80;55.21
62055;BME280;48653;51.742;-1.256;2023-08-06T06:14:23;100953.50;;;12.99;54.89
62055;BME280;48653;51.742;-1.256;2023-08-06T06:16:49;100952.78;;;13.29;54.70
62055;BME280;48653;51.742;-1.256;2023-08-06T06:19:14;100954.51;;;12.75;55.71
62055;BME280;48653;51.742;-1.256;2023-08-06T06:21:39;100954.49;;;13.30;54.85
62055;BME280;48653;51.742;-1.256;2023-08-06T06:24:04;100960.89;;;12.65;55.56
62055;BME280;48653;51.742;-1.256;2023-08-06T06:26:30;100963.39;;;13.18;54.79
62055;BME280;48653;51.742;-1.256;2023-08-06T06:28:54;100968.82;;;13.00;55.51
62055;BME280;48653;51.742;-1.256;2023-08-06T06:31:19;100972.27;;;12.56;56.85
62055;BME280;48653;51.742;-1.256;2023-08-06T06:33:44;100973.27;;;13.12;55.36
62055;BME280;48653;51.742;-1.256;2023-08-06T06:36:09;100981.41;;;13.85;54.93
62055;BME280;48653;51.742;-1.256;2023-08-06T06:38:34;100979.09;;;13.94;53.76
62055;BME280;48653;51.742;-1.256;2023-08-06T06:40:59;100982.14;;;13.99;53.06
62055;BME280;48653;51.742;-1.256;2023-08-06T06:43:26;100985.35;;;13.98;53.42
62055;BME280;48653;51.742;-1.256;2023-08-06T06:45:52;100989.18;;;14.00;52.80
62055;BME280;48653;51.742;-1.256;2023-08-06T06:48:14;100992.42;;;13.92;52.01
62055;BME280;48653;51.742;-1.256;2023-08-06T06:50:39;100989.71;;;14.36;53.18
62055;BME280;48653;51.742;-1.256;2023-08-06T06:53:06;100995.70;;;14.53;52.16
62055;BME280;48653;51.742;-1.256;2023-08-06T06:55:30;100992.94;;;14.03;52.72
62055;BME280;48653;51.742;-1.256;2023-08-06T06:57:55;100995.93;;;14.11;52.99
62055;BME280;48653;51.742;-1.256;2023-08-06T07:00:20;101000.94;;;14.41;52.51
62055;BME280;48653;51.742;-1.256;2023-08-06T07:02:45;101001.72;;;13.82;53.28
62055;BME280;48653;51.742;-1.256;2023-08-06T07:05:10;101005.48;;;14.28;52.76
62055;BME280;48653;51.742;-1.256;2023-08-06T07:07:35;101010.21;;;13.77;53.45
62055;BME280;48653;51.742;-1.256;2023-08-06T07:10:00;101008.42;;;14.03;53.37
62055;BME280;48653;51.742;-1.256;2023-08-06T07:12:25;101009.96;;;14.51;52.65
62055;BME280;48653;51.742;-1.256;2023-08-06T07:14:51;101013.13;;;14.33;52.27
62055;BME280;48653;51.742;-1.256;2023-08-06T07:17:15;101018.78;;;13.71;53.75
62055;BME280;48653;51.742;-1.256;2023-08-06T07:19:40;101021.13;;;13.81;53.82
62055;BME280;48653;51.742;-1.256;2023-08-06T07:22:05;101026.66;;;13.92;53.01
62055;BME280;48653;51.742;-1.256;2023-08-06T07:24:31;101023.95;;;14.62;51.20
62055;BME280;48653;51.742;-1.256;2023-08-06T07:26:56;101023.93;;;15.11;50.69
62055;BME280;48653;51.742;-1.256;2023-08-06T07:29:21;101025.15;;;15.43;50.13
62055;BME280;48653;51.742;-1.256;2023-08-06T07:31:46;101027.50;;;14.64;50.60
62055;BME280;48653;51.742;-1.256;2023-08-06T07:34:11;101031.01;;;15.81;49.14
62055;BME280;48653;51.742;-1.256;2023-08-06T07:36:37;101031.28;;;15.40;48.71
62055;BME280;48653;51.742;-1.256;2023-08-06T07:39:01;101033.40;;;16.14;48.89
62055;BME280;48653;51.742;-1.256;2023-08-06T07:41:26;101038.64;;;15.11;49.51
62055;BME280;48653;51.742;-1.256;2023-08-06T07:43:52;101040.43;;;15.23;49.24
62055;BME280;48653;51.742;-1.256;2023-08-06T07:46:17;101041.64;;;15.66;49.29
62055;BME280;48653;51.742;-1.256;2023-08-06T07:48:41;101045.52;;;15.35;49.67
62055;BME280;48653;51.742;-1.256;2023-08-06T07:51:07;101049.11;;;14.44;50.70
62055;BME280;48653;51.742;-1.256;2023-08-06T07:53:32;101048.36;;;15.10;50.65
62055;BME280;48653;51.742;-1.256;2023-08-06T07:55:57;101057.04;;;15.04;51.35
62055;BME280;48653;51.742;-1.256;2023-08-06T07:58:23;101054.48;;;14.45;50.85
62055;BME280;48653;51.742;-1.256;2023-08-06T08:00:47;101057.37;;;14.85;51.21
62055;BME280;48653;51.742;-1.256;2023-08-06T08:03:12;101053.76;;;14.34;51.86
62055;BME280;48653;51.742;-1.256;2023-08-06T08:05:37;101047.62;;;14.38;52.34
62055;BME280;48653;51.742;-1.256;2023-08-06T08:08:02;101051.97;;;15.58;51.40
62055;BME280;48653;51.742;-1.256;2023-08-06T08:10:27;101052.01;;;15.53;50.39
62055;BME280;48653;51.742;-1.256;2023-08-06T08:12:53;101048.13;;;14.93;50.36
62055;BME280;48653;51.742;-1.256;2023-08-06T08:15:17;101053.81;;;15.41;49.19
62055;BME280;48653;51.742;-1.256;2023-08-06T08:17:42;101054.14;;;15.59;48.78
62055;BME280;48653;51.742;-1.256;2023-08-06T08:20:08;101057.48;;;15.70;49.46
62055;BME280;48653;51.742;-1.256;2023-08-06T08:22:33;101058.10;;;14.78;49.18
62055;BME280;48653;51.742;-1.256;2023-08-06T08:24:58;101059.12;;;15.57;49.33
62055;BME280;48653;51.742;-1.256;2023-08-06T08:27:23;101063.08;;;14.73;50.67
62055;BME280;48653;51.742;-1.256;2023-08-06T08:29:48;101058.38;;;14.58;50.09
62055;BME280;48653;51.742;-1.256;2023-08-06T08:32:14;101056.04;;;15.05;49.68
62055;BME280;48653;51.742;-1.256;2023-08-06T08:34:39;101054.32;;;15.08;49.39
62055;BME280;48653;51.742;-1.256;2023-08-06T08:37:04;101053.05;;;15.91;48.04
62055;BME280;48653;51.742;-1.256;2023-08-06T08:39:29;101055.87;;;15.71;48.43
62055;BME280;48653;51.742;-1.256;2023-08-06T08:41:54;101057.88;;;15.46;48.34
62055;BME280;48653;51.742;-1.256;2023-08-06T08:44:20;101057.83;;;15.80;48.07
62055;BME280;48653;51.742;-1.256;2023-08-06T08:46:47;101059.58;;;15.64;48.45
62055;BME280;48653;51.742;-1.256;2023-08-06T08:49:11;101063.88;;;15.31;50.31
62055;BME280;48653;51.742;-1.256;2023-08-06T08:51:36;101063.86;;;15.91;49.24
62055;BME280;48653;51.742;-1.256;2023-08-06T08:54:03;101063.86;;;16.36;46.43
62055;BME280;48653;51.742;-1.256;2023-08-06T08:56:25;101064.89;;;15.87;47.64
62055;BME280;48653;51.742;-1.256;2023-08-06T08:58:51;101068.10;;;15.24;48.93
62055;BME280;48653;51.742;-1.256;2023-08-06T09:01:16;101073.19;;;15.46;49.14
62055;BME280;48653;51.742;-1.256;2023-08-06T09:03:41;101073.54;;;15.78;48.51
62055;BME280;48653;51.742;-1.256;2023-08-06T09:06:06;101071.50;;;15.41;47.66
62055;BME280;48653;51.742;-1.256;2023-08-06T09:08:36;101072.63;;;14.92;49.34
62055;BME280;48653;51.742;-1.256;2023-08-06T09:10:56;101074.84;;;15.77;48.39
62055;BME280;48653;51.742;-1.256;2023-08-06T09:13:21;101075.25;;;16.42;47.27
62055;BME280;48653;51.742;-1.256;2023-08-06T09:15:46;101077.70;;;16.48;46.86
62055;BME280;48653;51.742;-1.256;2023-08-06T09:18:11;101076.13;;;16.13;46.57
62055;BME280;48653;51.742;-1.256;2023-08-06T09:20:37;101080.36;;;17.03;46.48
62055;BME280;48653;51.742;-1.256;2023-08-06T09:23:07;101088.21;;;16.55;46.67
62055;BME280;48653;51.742;-1.256;2023-08-06T09:25:26;101082.86;;;16.79;45.73
62055;BME280;48653;51.742;-1.256;2023-08-06T09:27:52;101082.73;;;17.33;45.04
62055;BME280;48653;51.742;-1.256;2023-08-06T09:30:30;101081.14;;;17.16;46.09
62055;BME280;48653;51.742;-1.256;2023-08-06T09:32:45;101087.57;;;15.83;47.72
62055;BME280;48653;51.742;-1.256;2023-08-06T09:35:15;101090.67;;;16.83;45.97
62055;BME280;48653;51.742;-1.256;2023-08-06T09:37:36;101086.02;;;17.65;44.94
62055;BME280;48653;51.742;-1.256;2023-08-06T09:39:56;101089.07;;;17.49;43.96
62055;BME280;48653;51.742;-1.256;2023-08-06T09:42:22;101089.43;;;17.74;44.00
62055;BME280;48653;51.742;-1.256;2023-08-06T09:44:47;101091.66;;;16.91;44.64
62055;BME280;48653;51.742;-1.256;2023-08-06T09:47:12;101090.54;;;16.02;45.85
62055;BME280;48653;51.742;-1.256;2023-08-06T09:49:42;101096.33;;;16.83;45.51
62055;BME280;48653;51.742;-1.256;2023-08-06T09:52:02;101090.18;;;17.79;44.92
62055;BME280;48653;51.742;-1.256;2023-08-06T09:54:27;101095.77;;;17.32;44.08
62055;BME280;48653;51.742;-1.256;2023-08-06T09:56:52;101095.37;;;17.99;44.25
62055;BME280;48653;51.742;-1.256;2023-08-06T09:59:17;101100.40;;;17.64;43.91
62055;BME280;48653;51.742;-1.256;2023-08-06T10:01:42;101101.04;;;17.78;43.69
62055;BME280;48653;51.742;-1.256;2023-08-06T10:04:07;101098.68;;;17.86;43.56
62055;BME280;48653;51.742;-1.256;2023-08-06T10:06:34;101097.93;;;18.30;43.43
62055;BME280;48653;51.742;-1.256;2023-08-06T10:08:57;101102.68;;;17.98;42.98
62055;BME280;48653;51.742;-1.256;2023-08-06T10:11:24;101102.64;;;16.63;45.54
62055;BME280;48653;51.742;-1.256;2023-08-06T10:13:47;101102.71;;;16.14;45.14
62055;BME280;48653;51.742;-1.256;2023-08-06T10:16:12;101107.49;;;16.81;44.78
62055;BME280;48653;51.742;-1.256;2023-08-06T10:18:38;101103.80;;;16.51;46.74
62055;BME280;48653;51.742;-1.256;2023-08-06T10:21:02;101103.09;;;16.48;43.90
62055;BME280;48653;51.742;-1.256;2023-08-06T10:23:33;101104.86;;;16.65;44.48
62055;BME280;48653;51.742;-1.256;2023-08-06T10:25:54;101099.91;;;17.23;43.17
62055;BME280;48653;51.742;-1.256;2023-08-06T10:28:19;101098.36;;;18.02;42.79
62055;BME280;48653;51.742;-1.256;2023-08-06T10:30:44;101095.94;;;18.24;42.15
62055;BME280;48653;51.742;-1.256;2023-08-06T10:33:07;101098.11;;;18.47;42.08
62055;BME280;48653;51.742;-1.256;2023-08-06T10:35:36;101101.54;;;18.54;40.93
62055;BME280;48653;51.742;-1.256;2023-08-06T10:37:59;101111.75;;;17.92;43.37
62055;BME280;48653;51.742;-1.256;2023-08-06T10:40:23;101105.28;;;17.91;43.94
62055;BME280;48653;51.742;-1.256;2023-08-06T10:42:48;101100.91;;;18.38;42.32
62055;BME280;48653;51.742;-1.256;2023-08-06T10:45:16;101101.29;;;18.52;41.86
62055;BME280;48653;51.742;-1.256;2023-08-06T10:47:38;101100.80;;;18.88;41.25
62055;BME280;48653;51.742;-1.256;2023-08-06T10:50:03;101099.06;;;18.51;41.84
62055;BME280;48653;51.742;-1.256;2023-08-06T10:52:28;101102.50;;;19.28;40.96
62055;BME280;48653;51.742;-1.256;2023-08-06T10:54:54;101099.02;;;19.45;41.23
62055;BME280;48653;51.742;-1.256;2023-08-06T10:57:18;101094.82;;;20.34;39.79
62055;BME280;48653;51.742;-1.256;2023-08-06T10:59:43;101088.69;;;21.00;37.66
62055;BME280;48653;51.742;-1.256;2023-08-06T11:02:09;101092.31;;;20.36;37.53
62055;BME280;48653;51.742;-1.256;2023-08-06T11:04:33;101097.06;;;20.38;37.03
62055;BME280;48653;51.742;-1.256;2023-08-06T11:06:58;101093.63;;;19.98;38.14
62055;BME280;48653;51.742;-1.256;2023-08-06T11:09:23;101095.19;;;20.94;37.36
62055;BME280;48653;51.742;-1.256;2023-08-06T11:11:48;101096.86;;;20.65;38.77
62055;BME280;48653;51.742;-1.256;2023-08-06T11:14:15;101095.55;;;20.57;38.66
62055;BME280;48653;51.742;-1.256;2023-08-06T11:16:38;101096.33;;;21.41;37.10
62055;BME280;48653;51.742;-1.256;2023-08-06T11:19:04;101089.53;;;20.94;38.44
62055;BME280;48653;51.742;-1.256;2023-08-06T11:21:28;101089.21;;;20.33;38.43
62055;BME280;48653;51.742;-1.256;2023-08-06T11:23:54;101094.12;;;20.39;37.75
62055;BME280;48653;51.742;-1.256;2023-08-06T11:26:19;101091.94;;;19.44;39.26
62055;BME280;48653;51.742;-1.256;2023-08-06T11:28:43;101088.04;;;19.46;40.25
62055;BME280;48653;51.742;-1.256;2023-08-06T11:31:18;101083.76;;;19.18;38.34
62055;BME280;48653;51.742;-1.256;2023-08-06T11:33:33;101083.34;;;19.90;37.21
62055;BME280;48653;51.742;-1.256;2023-08-06T11:35:59;101085.66;;;19.81;37.35
62055;BME280;48653;51.742;-1.256;2023-08-06T11:38:25;101085.59;;;20.24;37.02
62055;BME280;48653;51.742;-1.256;2023-08-06T11:40:50;101084.92;;;21.44;36.73
62055;BME280;48653;51.742;-1.256;2023-08-06T11:43:14;101084.97;;;21.50;37.20
62055;BME280;48653;51.742;-1.256;2023-08-06T11:45:39;101081.48;;;21.63;36.46
62055;BME280;48653;51.742;-1.256;2023-08-06T11:48:04;101084.98;;;22.60;35.75
62055;BME280;48653;51.742;-1.256;2023-08-06T11:50:29;101078.95;;;21.64;35.39
62055;BME280;48653;51.742;-1.256;2023-08-06T11:52:56;101086.01;;;21.91;33.20
62055;BME280;48653;51.742;-1.256;2023-08-06T11:55:23;101081.84;;;20.74;34.79
62055;BME280;48653;51.742;-1.256;2023-08-06T11:57:44;101066.68;;;23.24;35.05
62055;BME280;48653;51.742;-1.256;2023-08-06T12:00:11;101069.34;;;22.65;32.11
62055;BME280;48653;51.742;-1.256;2023-08-06T12:02:34;101077.61;;;21.91;32.31
62055;BME280;48653;51.742;-1.256;2023-08-06T12:05:02;101079.48;;;21.43;34.55
62055;BME280;48653;51.742;-1.256;2023-08-06T12:07:27;101075.27;;;20.82;34.34
62055;BME280;48653;51.742;-1.256;2023-08-06T12:09:49;101081.34;;;21.81;36.15
62055;BME280;48653;51.742;-1.256;2023-08-06T12:12:14;101083.74;;;21.08;34.71
62055;BME280;48653;51.742;-1.256;2023-08-06T12:14:39;101076.44;;;20.30;35.43
62055;BME280;48653;51.742;-1.256;2023-08-06T12:17:04;101080.91;;;20.72;35.75
62055;BME280;48653;51.742;-1.256;2023-08-06T12:19:29;101079.27;;;21.42;35.35
62055;BME280;48653;51.742;-1.256;2023-08-06T12:21:54;101076.46;;;21.29;33.80
62055;BME280;48653;51.742;-1.256;2023-08-06T12:24:19;101085.37;;;21.01;33.68
62055;BME280;48653;51.742;-1.256;2023-08-06T12:26:44;101084.20;;;21.62;33.60
62055;BME280;48653;51.742;-1.256;2023-08-06T12:29:09;101082.40;;;22.14;35.75
62055;BME280;48653;51.742;-1.256;2023-08-06T12:31:34;101073.38;;;23.20;31.69